Time;durP1;ratioP1;P1;durP2;ratioP2;P2;SDS_P1;SDS_P2;PMS_P1;PMS_P2;Temp;Humidity;BMP_temperature;BMP_pressure;BME280_temperature;BME280_humidity;BME280_pressure;Samples;Min_cycle;Max_cycle;Signal;HPM_P1;HPM_P2
2023/06/15 00:01:24;;;;;;;;;;;16.50;99.90;;;;;;5030520;28;19931;-69
2023/06/15 00:03:51;;;;;;;;;;;16.50;99.90;;;;;;5025472;28;20171;-68
2023/06/15 00:06:18;;;;;;;;;;;16.50;99.90;;;;;;5025252;28;19989;-68
2023/06/15 00:08:44;;;;;;;;;;;16.50;99.90;;;;;;5043635;28;19992;-68
2023/06/15 00:11:12;;;;;;;;;;;16.50;99.90;;;;;;5044566;28;19980;-69
2023/06/15 00:13:39;;;;;;;;;;;16.40;99.90;;;;;;5028778;28;20173;-68
2023/06/15 00:16:06;;;;;;;;;;;16.30;99.90;;;;;;5044659;28;19924;-68
2023/06/15 00:18:37;;;;;;;;;;;16.30;99.90;;;;;;5045019;28;19921;-68
2023/06/15 00:21:04;;;;;;;;;;;16.30;99.90;;;;;;5044065;28;19980;-68
2023/06/15 00:23:32;;;;;;;;;;;16.20;99.90;;;;;;5044789;28;19929;-68
2023/06/15 00:25:58;;;;;;;;;;;16.20;99.90;;;;;;5044772;28;19921;-69
2023/06/15 00:28:26;;;;;;;;;;;16.20;99.90;;;;;;5044419;28;19987;-69
2023/06/15 00:30:53;;;;;;;;;;;16.20;99.90;;;;;;5043467;28;20180;-69
2023/06/15 00:33:20;;;;;;;;;;;16.10;99.90;;;;;;5043877;28;19921;-69
2023/06/15 00:35:46;;;;;;;;;;;16.00;99.90;;;;;;5044043;28;19984;-69
2023/06/15 00:38:13;;;;;;;;;;;16.00;99.90;;;;;;5044457;28;20226;-69
2023/06/15 00:40:39;;;;;;;;;;;16.00;99.90;;;;;;5044003;28;19984;-68
2023/06/15 00:43:06;;;;;;;;;;;15.90;99.90;;;;;;5036713;28;20177;-69
2023/06/15 00:45:34;;;;;;;;;;;15.90;99.90;;;;;;5024404;28;19941;-69
2023/06/15 00:48:01;;;;;;;;;;;15.80;99.90;;;;;;5024758;28;19928;-68
2023/06/15 00:50:29;;;;;;;;;;;15.80;99.90;;;;;;5024143;28;19921;-69
2023/06/15 00:52:57;;;;;;;;;;;15.70;99.90;;;;;;5025348;28;19927;-69
2023/06/15 00:55:24;;;;;;;;;;;15.70;99.90;;;;;;5043748;28;20239;-69
2023/06/15 00:57:52;;;;;;;;;;;15.60;99.90;;;;;;5044156;28;19943;-69
2023/06/15 01:00:19;;;;;;;;;;;15.60;99.90;;;;;;5038301;28;19961;-68
2023/06/15 01:02:50;;;;;;;;;;;15.50;99.90;;;;;;5024104;28;19984;-69
2023/06/15 01:05:17;;;;;;;;;;;15.50;99.90;;;;;;5024324;28;20121;-68
2023/06/15 01:07:47;;;;;;;;;;;15.40;99.90;;;;;;5024076;28;20149;-69
2023/06/15 01:10:15;;;;;;;;;;;15.30;99.90;;;;;;5023545;28;19921;-68
2023/06/15 01:12:45;;;;;;;;;;;15.30;99.90;;;;;;5026099;28;19944;-69
2023/06/15 01:15:11;;;;;;;;;;;15.30;99.90;;;;;;5043553;28;19933;-69
2023/06/15 01:17:44;;;;;;;;;;;15.30;99.90;;;;;;5043860;28;19921;-68
2023/06/15 01:20:14;;;;;;;;;;;15.30;99.90;;;;;;5043470;28;19925;-68
2023/06/15 01:22:45;;;;;;;;;;;15.20;99.90;;;;;;5043859;28;19921;-68
2023/06/15 01:25:17;;;;;;;;;;;15.20;99.90;;;;;;5043831;28;19986;-69
2023/06/15 01:27:49;;;;;;;;;;;15.10;99.90;;;;;;5043670;28;19963;-69
2023/06/15 01:30:16;;;;;;;;;;;15.10;99.90;;;;;;5043277;28;19980;-69
2023/06/15 01:32:42;;;;;;;;;;;15.00;99.90;;;;;;5043322;28;19984;-69
2023/06/15 01:35:09;;;;;;;;;;;14.90;99.90;;;;;;5043540;28;19921;-69
2023/06/15 01:37:35;;;;;;;;;;;14.90;99.90;;;;;;5043791;28;20142;-68
2023/06/15 01:40:03;;;;;;;;;;;14.80;99.90;;;;;;5042924;28;19968;-68
2023/06/15 01:42:29;;;;;;;;;;;14.80;99.90;;;;;;5043534;28;19952;-68
2023/06/15 01:44:58;;;;;;;;;;;14.70;99.90;;;;;;5042702;28;20141;-69
2023/06/15 01:47:26;;;;;;;;;;;14.60;99.90;;;;;;5042962;28;19988;-69
2023/06/15 01:49:52;;;;;;;;;;;14.50;99.90;;;;;;5043501;28;19929;-67
2023/06/15 01:52:19;;;;;;;;;;;14.50;99.90;;;;;;5040307;28;20107;-69
2023/06/15 01:54:47;;;;;;;;;;;14.40;99.90;;;;;;5043202;28;19921;-69
2023/06/15 01:57:13;;;;;;;;;;;14.40;99.90;;;;;;5043404;28;19921;-68
2023/06/15 01:59:40;;;;;;;;;;;14.40;99.90;;;;;;5043061;28;19980;-69
2023/06/15 02:02:08;;;;;;;;;;;14.30;99.90;;;;;;5042830;28;19976;-69
2023/06/15 02:04:35;;;;;;;;;;;14.20;99.90;;;;;;5043376;28;19928;-69
2023/06/15 02:07:02;;;;;;;;;;;14.20;99.90;;;;;;5043330;28;19952;-69
2023/06/15 02:09:29;;;;;;;;;;;14.20;99.90;;;;;;5043100;28;19928;-69
2023/06/15 02:11:55;;;;;;;;;;;14.20;99.90;;;;;;5042532;28;19924;-69
2023/06/15 02:14:23;;;;;;;;;;;14.10;99.90;;;;;;5043050;28;19989;-68
2023/06/15 02:16:49;;;;;;;;;;;14.10;99.90;;;;;;5043192;28;19928;-68
2023/06/15 02:19:20;;;;;;;;;;;14.00;99.90;;;;;;5043068;28;19952;-69
2023/06/15 02:21:47;;;;;;;;;;;13.90;99.90;;;;;;5042710;28;19921;-69
2023/06/15 02:24:15;;;;;;;;;;;13.90;99.90;;;;;;5042966;28;19928;-69
2023/06/15 02:26:41;;;;;;;;;;;13.80;99.90;;;;;;5043017;28;19975;-69
2023/06/15 02:29:08;;;;;;;;;;;13.80;99.90;;;;;;5043233;28;19984;-69
2023/06/15 02:31:36;;;;;;;;;;;13.70;99.90;;;;;;5042249;28;20260;-69
2023/06/15 02:34:02;;;;;;;;;;;13.80;99.90;;;;;;5043007;28;19988;-69
2023/06/15 02:36:30;;;;;;;;;;;13.70;99.90;;;;;;5043098;28;19980;-69
2023/06/15 02:38:57;;;;;;;;;;;13.60;99.90;;;;;;5042844;28;19927;-68
2023/06/15 02:41:23;;;;;;;;;;;13.60;99.90;;;;;;5042165;28;19988;-69
2023/06/15 02:43:51;;;;;;;;;;;13.50;99.90;;;;;;5029394;28;19927;-69
2023/06/15 02:46:18;;;;;;;;;;;13.50;99.90;;;;;;5041374;28;19985;-69
2023/06/15 02:48:45;;;;;;;;;;;13.40;99.90;;;;;;5042910;28;19921;-69
2023/06/15 02:51:11;;;;;;;;;;;13.40;99.90;;;;;;5042399;28;19921;-69
2023/06/15 02:53:39;;;;;;;;;;;13.30;99.90;;;;;;5042862;28;19984;-68
2023/06/15 02:56:06;;;;;;;;;;;13.30;99.90;;;;;;5043163;28;19921;-68
2023/06/15 02:58:34;;;;;;;;;;;13.20;99.90;;;;;;5046613;28;19956;-69
2023/06/15 03:01:01;;;;;;;;;;;13.20;99.90;;;;;;5045998;28;19956;-68
2023/06/15 03:03:28;;;;;;;;;;;13.20;99.90;;;;;;5046538;28;19921;-69
2023/06/15 03:05:55;;;;;;;;;;;13.10;99.90;;;;;;5046418;28;19944;-69
2023/06/15 03:08:23;;;;;;;;;;;13.10;99.90;;;;;;5046541;28;19988;-68
2023/06/15 03:10:52;;;;;;;;;;;13.10;99.90;;;;;;5045308;28;19967;-69
2023/06/15 03:13:19;;;;;;;;;;;13.00;99.90;;;;;;5046069;28;19921;-69
2023/06/15 03:15:48;;;;;;;;;;;13.00;99.90;;;;;;5045823;28;19921;-69
2023/06/15 03:18:14;;;;;;;;;;;13.00;99.90;;;;;;5046294;28;19953;-69
2023/06/15 03:20:43;;;;;;;;;;;12.90;99.90;;;;;;5045314;28;19921;-68
2023/06/15 03:23:10;;;;;;;;;;;12.90;99.90;;;;;;5046123;28;19963;-68
2023/06/15 03:25:37;;;;;;;;;;;12.90;99.90;;;;;;5045930;28;19924;-69
2023/06/15 03:28:05;;;;;;;;;;;12.80;99.90;;;;;;5045725;28;19921;-69
2023/06/15 03:30:31;;;;;;;;;;;12.80;99.90;;;;;;5045491;28;19961;-68
2023/06/15 03:32:59;;;;;;;;;;;12.70;99.90;;;;;;5045613;28;20192;-69
2023/06/15 03:35:26;;;;;;;;;;;12.70;99.90;;;;;;5045555;28;20238;-68
2023/06/15 03:37:53;;;;;;;;;;;12.70;99.90;;;;;;5045683;28;20262;-69
2023/06/15 03:40:20;;;;;;;;;;;12.70;99.90;;;;;;5045589;28;20426;-68
2023/06/15 03:42:46;;;;;;;;;;;12.70;99.90;;;;;;5045771;28;19992;-69
2023/06/15 03:45:14;;;;;;;;;;;12.60;99.90;;;;;;5045307;28;19980;-68
2023/06/15 03:47:41;;;;;;;;;;;12.60;99.90;;;;;;5045502;28;19921;-69
2023/06/15 03:50:08;;;;;;;;;;;12.70;99.90;;;;;;5045251;28;19952;-69
2023/06/15 03:52:35;;;;;;;;;;;12.70;99.90;;;;;;5045139;28;20124;-68
2023/06/15 03:55:02;;;;;;;;;;;12.70;99.90;;;;;;5045351;28;19921;-69
2023/06/15 03:57:29;;;;;;;;;;;12.70;99.90;;;;;;5045251;28;19984;-68
2023/06/15 03:59:56;;;;;;;;;;;12.70;99.90;;;;;;5043829;28;19963;-69
2023/06/15 04:02:24;;;;;;;;;;;12.70;99.90;;;;;;5044499;28;19992;-69
2023/06/15 04:04:52;;;;;;;;;;;12.70;99.90;;;;;;5045464;28;19921;-68
2023/06/15 04:07:19;;;;;;;;;;;12.70;99.90;;;;;;5044626;28;19928;-69
2023/06/15 04:09:46;;;;;;;;;;;12.70;99.90;;;;;;5043571;28;19993;-69
2023/06/15 04:12:12;;;;;;;;;;;12.80;99.90;;;;;;5044403;28;19933;-69
2023/06/15 04:14:39;;;;;;;;;;;12.80;99.90;;;;;;5044691;28;19921;-69
2023/06/15 04:17:06;;;;;;;;;;;12.80;99.90;;;;;;5045094;28;19929;-68
2023/06/15 04:19:34;;;;;;;;;;;12.80;99.90;;;;;;5045071;28;20235;-69
2023/06/15 04:22:01;;;;;;;;;;;12.90;99.90;;;;;;5044414;28;19928;-69
2023/06/15 04:24:27;;;;;;;;;;;12.90;99.90;;;;;;5045252;28;19960;-69
2023/06/15 04:26:57;;;;;;;;;;;12.90;99.90;;;;;;5045120;28;19949;-69
2023/06/15 04:29:24;;;;;;;;;;;13.00;99.90;;;;;;5044912;28;19927;-69
2023/06/15 04:31:54;;;;;;;;;;;13.00;99.90;;;;;;5044332;28;19928;-69
2023/06/15 04:34:22;;;;;;;;;;;13.20;99.90;;;;;;5044458;28;19921;-69
2023/06/15 04:36:50;;;;;;;;;;;13.30;99.90;;;;;;5044395;28;20221;-69
2023/06/15 04:39:16;;;;;;;;;;;13.40;99.90;;;;;;5044709;28;19920;-70
2023/06/15 04:41:43;;;;;;;;;;;13.50;99.90;;;;;;5043828;28;20205;-73
2023/06/15 04:44:10;;;;;;;;;;;13.70;99.90;;;;;;5044368;28;20208;-68
2023/06/15 04:46:39;;;;;;;;;;;13.80;99.90;;;;;;5044659;28;20160;-68
2023/06/15 04:49:06;;;;;;;;;;;13.90;99.90;;;;;;5044686;28;19982;-68
2023/06/15 04:51:33;;;;;;;;;;;14.00;99.90;;;;;;5043696;28;19957;-69
2023/06/15 04:54:03;;;;;;;;;;;14.20;99.90;;;;;;5042604;28;20094;-68
2023/06/15 04:56:31;;;;;;;;;;;14.30;99.90;;;;;;5043968;28;19959;-69
2023/06/15 04:58:58;;;;;;;;;;;14.40;99.90;;;;;;5044195;28;19956;-68
2023/06/15 05:01:24;;;;;;;;;;;14.50;99.90;;;;;;5043151;28;19984;-69
2023/06/15 05:03:54;;;;;;;;;;;14.60;99.90;;;;;;5042390;28;19993;-68
2023/06/15 05:06:21;;;;;;;;;;;14.70;99.90;;;;;;5043928;28;19971;-69
2023/06/15 05:08:47;;;;;;;;;;;14.80;99.90;;;;;;5044274;28;19964;-69
2023/06/15 05:11:15;;;;;;;;;;;14.90;99.90;;;;;;5043538;28;20142;-69
2023/06/15 05:13:45;;;;;;;;;;;15.00;99.90;;;;;;5042446;28;19921;-69
2023/06/15 05:16:11;;;;;;;;;;;15.10;99.90;;;;;;5043812;28;19987;-70
2023/06/15 05:18:38;;;;;;;;;;;15.20;99.90;;;;;;5043364;28;20217;-69
2023/06/15 05:21:05;;;;;;;;;;;15.20;99.90;;;;;;5043320;28;19964;-69
2023/06/15 05:23:32;;;;;;;;;;;15.40;99.90;;;;;;5044200;28;19921;-67
2023/06/15 05:25:59;;;;;;;;;;;15.40;99.90;;;;;;5043828;28;19988;-68
2023/06/15 05:28:25;;;;;;;;;;;15.50;99.90;;;;;;5043442;28;19944;-68
2023/06/15 05:30:53;;;;;;;;;;;15.60;99.90;;;;;;5043033;28;19988;-68
2023/06/15 05:33:21;;;;;;;;;;;15.70;99.90;;;;;;5041264;28;19988;-68
2023/06/15 05:35:48;;;;;;;;;;;15.80;99.90;;;;;;5043131;28;19927;-69
2023/06/15 05:38:14;;;;;;;;;;;15.90;99.90;;;;;;5043491;28;20244;-67
2023/06/15 05:40:41;;;;;;;;;;;16.00;99.90;;;;;;5043126;28;19963;-67
2023/06/15 05:43:07;;;;;;;;;;;16.10;99.90;;;;;;5043764;28;19960;-70
2023/06/15 05:45:34;;;;;;;;;;;16.10;99.90;;;;;;5043228;28;20283;-69
2023/06/15 05:48:02;;;;;;;;;;;16.20;99.90;;;;;;5043442;28;19952;-69
2023/06/15 05:50:29;;;;;;;;;;;16.30;99.90;;;;;;5042809;28;19932;-69
2023/06/15 05:52:56;;;;;;;;;;;16.40;99.90;;;;;;5043356;28;19925;-69
2023/06/15 05:55:23;;;;;;;;;;;16.50;99.90;;;;;;5043449;28;19921;-70
2023/06/15 05:57:50;;;;;;;;;;;16.60;99.90;;;;;;5023466;28;19921;-70
2023/06/15 06:00:17;;;;;;;;;;;16.70;99.90;;;;;;5027689;28;19959;-70
2023/06/15 06:02:43;;;;;;;;;;;16.70;99.90;;;;;;5043488;28;19928;-69
2023/06/15 06:05:11;;;;;;;;;;;16.80;99.90;;;;;;5023546;28;20168;-70
2023/06/15 06:07:38;;;;;;;;;;;16.90;99.90;;;;;;5038118;28;19921;-68
2023/06/15 06:10:05;;;;;;;;;;;17.00;99.90;;;;;;5042998;28;20013;-70
2023/06/15 06:12:31;;;;;;;;;;;17.10;99.90;;;;;;5043312;28;20009;-69
2023/06/15 06:14:58;;;;;;;;;;;17.10;99.90;;;;;;5043033;28;20221;-69
2023/06/15 06:17:25;;;;;;;;;;;17.20;99.90;;;;;;5043480;28;19988;-69
2023/06/15 06:19:52;;;;;;;;;;;17.20;99.90;;;;;;5043611;28;19921;-69
2023/06/15 06:22:20;;;;;;;;;;;17.30;99.90;;;;;;5042657;28;19925;-69
2023/06/15 06:24:46;;;;;;;;;;;17.30;99.90;;;;;;5043238;28;19925;-70
2023/06/15 06:27:13;;;;;;;;;;;17.40;99.90;;;;;;5043164;28;19988;-69
2023/06/15 06:29:40;;;;;;;;;;;17.40;99.90;;;;;;5043201;28;19936;-69
2023/06/15 06:32:07;;;;;;;;;;;17.50;99.90;;;;;;5045330;28;19921;-69
2023/06/15 06:34:35;;;;;;;;;;;17.50;99.90;;;;;;5047123;28;19952;-70
2023/06/15 06:37:02;;;;;;;;;;;17.60;99.90;;;;;;5046677;28;20220;-68
2023/06/15 06:39:30;;;;;;;;;;;17.70;99.90;;;;;;5029184;28;19929;-69
2023/06/15 06:42:19;;;;;;;;;;;17.70;99.90;;;;;;5035326;28;19924;-69
2023/06/15 06:44:45;;;;;;;;;;;17.70;99.90;;;;;;5046869;28;19921;-68
2023/06/15 06:47:12;;;;;;;;;;;17.80;99.90;;;;;;5046742;28;19923;-69
2023/06/15 06:49:39;;;;;;;;;;;17.80;99.90;;;;;;5046667;28;19952;-69
2023/06/15 06:52:06;;;;;;;;;;;17.90;99.90;;;;;;5046232;28;19984;-69
2023/06/15 06:54:34;;;;;;;;;;;18.00;99.90;;;;;;5046658;28;20200;-70
2023/06/15 06:57:03;;;;;;;;;;;18.00;99.90;;;;;;5046710;28;19967;-69
2023/06/15 06:59:29;;;;;;;;;;;18.10;99.90;;;;;;5046688;28;19988;-70
2023/06/15 07:01:56;;;;;;;;;;;18.20;99.90;;;;;;5046008;28;19988;-70
2023/06/15 07:04:23;;;;;;;;;;;18.30;99.90;;;;;;5046252;28;20260;-69
2023/06/15 07:06:49;;;;;;;;;;;18.40;99.90;;;;;;5046264;28;19992;-69
2023/06/15 07:09:16;;;;;;;;;;;18.40;99.90;;;;;;5046723;28;19952;-69
2023/06/15 07:11:44;;;;;;;;;;;18.50;99.90;;;;;;5045870;28;19963;-69
2023/06/15 07:14:10;;;;;;;;;;;18.60;99.90;;;;;;5046114;28;20011;-70
2023/06/15 07:16:37;;;;;;;;;;;18.70;99.90;;;;;;5046103;28;20149;-70
2023/06/15 07:19:04;;;;;;;;;;;18.70;99.90;;;;;;5036514;28;19961;-69
2023/06/15 07:21:30;;;;;;;;;;;18.80;99.90;;;;;;5045504;28;19988;-70
2023/06/15 07:23:57;;;;;;;;;;;18.80;99.90;;;;;;5046365;28;19928;-70
2023/06/15 07:26:24;;;;;;;;;;;18.90;99.90;;;;;;5046134;28;19921;-70
2023/06/15 07:28:52;;;;;;;;;;;19.00;99.90;;;;;;5045938;28;19935;-70
2023/06/15 07:31:18;;;;;;;;;;;19.10;99.90;;;;;;5045208;28;19928;-70
2023/06/15 07:33:45;;;;;;;;;;;19.10;99.90;;;;;;5046107;28;19953;-70
2023/06/15 07:36:12;;;;;;;;;;;19.10;99.90;;;;;;5045870;28;20112;-70
2023/06/15 07:38:40;;;;;;;;;;;19.20;99.90;;;;;;5046170;28;19963;-69
2023/06/15 07:41:09;;;;;;;;;;;19.20;99.90;;;;;;5042597;28;19929;-70
2023/06/15 07:43:36;;;;;;;;;;;19.30;99.90;;;;;;5033234;28;19928;-69
2023/06/15 07:46:04;;;;;;;;;;;19.30;99.90;;;;;;5025610;28;19944;-69
2023/06/15 07:48:30;;;;;;;;;;;19.40;99.90;;;;;;5026154;28;19922;-69
2023/06/15 07:50:57;;;;;;;;;;;19.40;99.90;;;;;;5025284;28;19921;-69
2023/06/15 07:53:24;;;;;;;;;;;19.50;99.90;;;;;;5032910;28;19988;-69
2023/06/15 07:55:51;;;;;;;;;;;19.50;99.90;;;;;;5045470;28;19987;-70
2023/06/15 07:58:17;;;;;;;;;;;19.50;99.90;;;;;;5045424;28;19921;-69
2023/06/15 08:00:44;;;;;;;;;;;19.60;99.90;;;;;;5036231;28;20232;-69
2023/06/15 08:03:12;;;;;;;;;;;19.50;99.90;;;;;;5025712;28;19988;-70
2023/06/15 08:05:38;;;;;;;;;;;19.50;99.90;;;;;;5035917;28;19992;-71
2023/06/15 08:08:05;;;;;;;;;;;19.50;99.90;;;;;;5045183;28;19921;-69
2023/06/15 08:10:32;;;;;;;;;;;19.50;99.90;;;;;;5044703;28;19952;-70
2023/06/15 08:12:59;;;;;;;;;;;19.60;99.90;;;;;;5045292;28;19928;-70
2023/06/15 08:15:25;;;;;;;;;;;19.60;99.90;;;;;;5044895;28;19921;-69
2023/06/15 08:17:52;;;;;;;;;;;19.70;99.90;;;;;;5044676;28;20269;-69
2023/06/15 08:20:21;;;;;;;;;;;19.70;99.90;;;;;;5044714;28;19952;-69
2023/06/15 08:22:47;;;;;;;;;;;19.80;99.90;;;;;;5045130;28;19944;-70
2023/06/15 08:25:14;;;;;;;;;;;19.80;99.90;;;;;;5044931;28;19921;-70
2023/06/15 08:27:42;;;;;;;;;;;19.80;99.90;;;;;;5044953;28;19928;-69
2023/06/15 08:30:09;;;;;;;;;;;19.90;99.90;;;;;;5044442;28;19927;-69
2023/06/15 08:32:36;;;;;;;;;;;20.00;99.90;;;;;;5044771;28;19959;-70
2023/06/15 08:35:02;;;;;;;;;;;20.10;99.90;;;;;;5044868;28;19953;-70
2023/06/15 08:37:31;;;;;;;;;;;20.10;99.90;;;;;;5043519;28;19921;-70
2023/06/15 08:39:57;;;;;;;;;;;20.20;99.90;;;;;;5024749;28;19921;-69
2023/06/15 08:42:25;;;;;;;;;;;20.20;99.90;;;;;;5021598;28;19929;-69
2023/06/15 08:44:53;;;;;;;;;;;20.20;99.90;;;;;;5024660;28;19988;-70
2023/06/15 08:47:20;;;;;;;;;;;20.20;99.90;;;;;;5024977;28;19992;-72
2023/06/15 08:49:48;;;;;;;;;;;20.20;99.90;;;;;;5024869;28;19922;-69
2023/06/15 08:52:16;;;;;;;;;;;20.30;99.90;;;;;;5027656;28;19921;-69
2023/06/15 08:54:44;;;;;;;;;;;20.30;99.90;;;;;;5043994;28;20121;-69
2023/06/15 08:57:11;;;;;;;;;;;20.30;99.90;;;;;;5044148;28;20000;-69
2023/06/15 08:59:37;;;;;;;;;;;20.40;99.90;;;;;;5044405;28;19927;-70
2023/06/15 09:02:06;;;;;;;;;;;20.50;99.90;;;;;;5043435;28;19980;-69
2023/06/15 09:04:32;;;;;;;;;;;20.50;99.90;;;;;;5044046;28;19935;-70
2023/06/15 09:07:00;;;;;;;;;;;20.50;99.90;;;;;;5044393;28;19956;-69
2023/06/15 09:09:26;;;;;;;;;;;20.60;99.90;;;;;;5044278;28;19933;-70
2023/06/15 09:11:54;;;;;;;;;;;20.70;99.90;;;;;;5043584;28;19921;-70
2023/06/15 09:14:21;;;;;;;;;;;20.70;99.90;;;;;;5044190;28;19944;-70
2023/06/15 09:16:49;;;;;;;;;;;20.80;99.90;;;;;;5044014;28;19921;-69
2023/06/15 09:19:16;;;;;;;;;;;20.70;99.90;;;;;;5044248;28;19928;-69
2023/06/15 09:21:43;;;;;;;;;;;20.70;99.90;;;;;;5043138;28;19929;-69
2023/06/15 09:24:10;;;;;;;;;;;20.80;99.90;;;;;;5043802;28;19928;-70
2023/06/15 09:26:38;;;;;;;;;;;20.80;99.90;;;;;;5043812;28;19932;-69
2023/06/15 09:29:09;;;;;;;;;;;20.80;99.90;;;;;;5043621;28;19921;-69
2023/06/15 09:31:36;;;;;;;;;;;20.90;99.90;;;;;;5043291;28;19921;-69
2023/06/15 09:34:03;;;;;;;;;;;21.10;99.90;;;;;;5043678;28;19956;-69
2023/06/15 09:36:35;;;;;;;;;;;21.20;99.90;;;;;;5043676;28;19927;-70
2023/06/15 09:39:03;;;;;;;;;;;21.30;99.90;;;;;;5029925;28;19968;-69
2023/06/15 09:41:31;;;;;;;;;;;21.30;99.90;;;;;;5020409;28;19975;-70
2023/06/15 09:43:57;;;;;;;;;;;21.40;99.90;;;;;;5023936;28;20108;-69
2023/06/15 09:46:28;;;;;;;;;;;21.40;99.90;;;;;;5037060;28;19984;-69
2023/06/15 09:48:54;;;;;;;;;;;21.50;99.80;;;;;;5043660;28;19989;-69
2023/06/15 09:51:23;;;;;;;;;;;21.50;99.40;;;;;;5042772;28;19921;-69
2023/06/15 09:53:51;;;;;;;;;;;21.60;98.80;;;;;;5043208;28;19925;-69
2023/06/15 09:56:18;;;;;;;;;;;21.60;98.00;;;;;;5041107;28;19937;-69
2023/06/15 09:58:48;;;;;;;;;;;21.60;97.00;;;;;;5042976;28;20192;-69
2023/06/15 10:01:18;;;;;;;;;;;21.70;98.20;;;;;;5042412;28;19929;-70
2023/06/15 10:03:52;;;;;;;;;;;21.70;99.20;;;;;;5040479;28;19936;-69
2023/06/15 10:06:19;;;;;;;;;;;21.80;98.80;;;;;;5022835;28;19976;-70
2023/06/15 10:08:51;;;;;;;;;;;22.00;98.70;;;;;;5023396;28;20236;-70
2023/06/15 10:11:18;;;;;;;;;;;22.00;98.40;;;;;;5023041;28;20055;-69
2023/06/15 10:13:49;;;;;;;;;;;22.10;97.60;;;;;;5037929;28;20253;-69
2023/06/15 10:16:17;;;;;;;;;;;22.30;98.10;;;;;;5043030;28;19976;-69
2023/06/15 10:18:45;;;;;;;;;;;22.30;97.40;;;;;;5043215;28;19921;-69
2023/06/15 10:21:15;;;;;;;;;;;22.40;97.50;;;;;;5042634;28;19921;-70
2023/06/15 10:23:42;;;;;;;;;;;22.50;98.10;;;;;;5043056;28;19921;-69
2023/06/15 10:26:09;;;;;;;;;;;22.60;96.80;;;;;;5040998;28;19928;-69
2023/06/15 10:28:38;;;;;;;;;;;22.50;97.20;;;;;;5041661;28;19927;-70
2023/06/15 10:31:09;;;;;;;;;;;22.40;97.80;;;;;;5040977;28;19988;-69
2023/06/15 10:33:38;;;;;;;;;;;22.40;97.90;;;;;;5043063;28;19985;-70
2023/06/15 10:36:09;;;;;;;;;;;22.60;98.40;;;;;;5042884;28;19980;-70
2023/06/15 10:38:41;;;;;;;;;;;22.80;97.50;;;;;;5043092;28;19927;-69
2023/06/15 10:41:08;;;;;;;;;;;23.00;97.30;;;;;;5022400;28;19921;-70
2023/06/15 10:43:34;;;;;;;;;;;23.20;97.30;;;;;;5023387;28;20329;-70
2023/06/15 10:46:02;;;;;;;;;;;23.30;97.50;;;;;;5023182;28;19921;-70
2023/06/15 10:48:29;;;;;;;;;;;23.40;97.30;;;;;;5039522;28;19921;-70
2023/06/15 10:51:02;;;;;;;;;;;23.40;95.90;;;;;;5042414;28;19980;-70
2023/06/15 10:53:29;;;;;;;;;;;23.30;96.10;;;;;;5043220;28;19986;-69
2023/06/15 10:55:58;;;;;;;;;;;23.10;95.40;;;;;;5042640;28;20231;-70
2023/06/15 10:58:26;;;;;;;;;;;22.90;95.60;;;;;;5042893;28;19992;-69
2023/06/15 11:01:07;;;;;;;;;;;22.80;95.30;;;;;;5042040;28;19928;-70
2023/06/15 11:03:34;;;;;;;;;;;22.80;96.20;;;;;;5041916;28;19929;-74
2023/06/15 11:06:05;;;;;;;;;;;23.00;95.90;;;;;;5041891;28;19984;-69
2023/06/15 11:08:32;;;;;;;;;;;23.30;95.50;;;;;;5042929;28;19928;-70
2023/06/15 11:11:00;;;;;;;;;;;23.50;94.40;;;;;;5042282;28;19944;-70
2023/06/15 11:13:27;;;;;;;;;;;23.60;94.10;;;;;;5041567;28;20263;-70
2023/06/15 11:16:06;;;;;;;;;;;23.80;95.10;;;;;;5042036;28;20255;-70
2023/06/15 11:18:32;;;;;;;;;;;23.90;92.90;;;;;;5045853;28;20191;-69
2023/06/15 11:21:02;;;;;;;;;;;23.80;93.70;;;;;;5045762;28;19952;-69
2023/06/15 11:23:32;;;;;;;;;;;23.70;93.90;;;;;;5045985;28;19920;-69
2023/06/15 11:26:01;;;;;;;;;;;23.60;94.70;;;;;;5046198;28;19964;-70
2023/06/15 11:28:31;;;;;;;;;;;23.80;94.50;;;;;;5046424;28;19921;-70
2023/06/15 11:30:58;;;;;;;;;;;24.10;93.60;;;;;;5045419;28;20227;-70
2023/06/15 11:33:25;;;;;;;;;;;24.30;94.20;;;;;;5045958;28;19964;-70
2023/06/15 11:35:52;;;;;;;;;;;24.40;92.80;;;;;;5045922;28;19984;-70
2023/06/15 11:38:21;;;;;;;;;;;24.40;93.40;;;;;;5046023;28;20004;-69
2023/06/15 12:05:39;;;;;;;;;;;23.50;89.70;;;;;;5045120;28;19994;-67
2023/06/15 12:08:13;;;;;;;;;;;23.60;90.90;;;;;;5041963;28;20226;-68
2023/06/15 12:10:39;;;;;;;;;;;24.20;91.00;;;;;;5044864;28;19921;-68
2023/06/15 12:13:11;;;;;;;;;;;24.60;91.70;;;;;;5045155;28;20223;-69
2023/06/15 12:15:39;;;;;;;;;;;25.10;91.30;;;;;;5044880;28;20201;-69
2023/06/15 12:18:07;;;;;;;;;;;25.30;88.90;;;;;;5045104;28;19921;-68
2023/06/15 12:20:35;;;;;;;;;;;25.40;88.10;;;;;;5044022;28;19984;-67
2023/06/15 12:23:02;;;;;;;;;;;25.50;88.80;;;;;;5045238;28;19921;-68
2023/06/15 12:25:44;;;;;;;;;;;25.60;89.00;;;;;;5044228;28;20276;-68
2023/06/15 12:28:15;;;;;;;;;;;25.90;86.80;;;;;;5042568;28;19988;-68
2023/06/15 12:30:42;;;;;;;;;;;26.10;85.60;;;;;;5044239;28;19928;-68
2023/06/15 12:33:24;;;;;;;;;;;26.30;85.00;;;;;;5045030;28;19963;-68
2023/06/15 12:35:51;;;;;;;;;;;26.30;84.60;;;;;;5044552;28;19996;-68
2023/06/15 12:38:17;;;;;;;;;;;26.40;85.00;;;;;;5044410;28;19927;-69
2023/06/15 12:40:44;;;;;;;;;;;26.60;84.40;;;;;;5044168;28;20012;-68
2023/06/15 12:43:12;;;;;;;;;;;26.90;85.60;;;;;;5043707;28;20390;-69
2023/06/15 12:45:40;;;;;;;;;;;26.80;81.20;;;;;;5042836;28;20090;-68
2023/06/15 12:48:07;;;;;;;;;;;26.60;81.90;;;;;;5044683;28;19928;-68
2023/06/15 12:50:34;;;;;;;;;;;26.40;82.00;;;;;;5043972;28;20147;-68
2023/06/15 12:53:00;;;;;;;;;;;26.10;81.20;;;;;;5044573;28;19925;-69
2023/06/15 12:55:28;;;;;;;;;;;26.10;81.70;;;;;;5044394;28;19928;-68
2023/06/15 12:57:54;;;;;;;;;;;25.90;81.60;;;;;;5044475;28;19921;-68
2023/06/15 13:00:23;;;;;;;;;;;25.70;81.40;;;;;;5043469;28;20406;-69
2023/06/15 13:02:51;;;;;;;;;;;25.30;82.00;;;;;;5044586;28;19929;-68
2023/06/15 13:05:18;;;;;;;;;;;25.20;82.30;;;;;;5044289;28;19928;-68
2023/06/15 13:07:46;;;;;;;;;;;25.00;81.70;;;;;;5044276;28;19921;-68
2023/06/15 13:10:12;;;;;;;;;;;25.10;82.20;;;;;;5043526;28;20204;-68
2023/06/15 13:12:39;;;;;;;;;;;25.60;81.80;;;;;;5043558;28;19928;-68
2023/06/15 13:15:06;;;;;;;;;;;25.80;80.30;;;;;;5043703;28;20124;-69
2023/06/15 13:17:35;;;;;;;;;;;25.90;80.60;;;;;;5044156;28;19921;-68
2023/06/15 13:20:04;;;;;;;;;;;26.30;80.70;;;;;;5043617;28;19921;-68
2023/06/15 13:22:31;;;;;;;;;;;26.50;80.20;;;;;;5044020;28;20090;-69
2023/06/15 13:24:57;;;;;;;;;;;26.70;80.90;;;;;;5043418;28;19987;-68
2023/06/15 13:27:25;;;;;;;;;;;27.00;79.80;;;;;;5043733;28;19926;-68
2023/06/15 13:29:51;;;;;;;;;;;27.40;77.80;;;;;;5043865;28;19988;-69
2023/06/15 13:32:19;;;;;;;;;;;27.50;78.00;;;;;;5042790;28;19987;-69
2023/06/15 13:34:45;;;;;;;;;;;27.10;77.20;;;;;;5043423;28;19953;-68
2023/06/15 13:37:17;;;;;;;;;;;27.00;79.00;;;;;;5043932;28;19921;-68
2023/06/15 13:39:43;;;;;;;;;;;26.90;77.90;;;;;;5043258;28;19928;-68
2023/06/15 13:42:11;;;;;;;;;;;26.70;78.90;;;;;;5042137;28;19921;-68
2023/06/15 13:44:38;;;;;;;;;;;26.40;77.20;;;;;;5043363;28;19988;-69
2023/06/15 13:47:05;;;;;;;;;;;26.10;77.50;;;;;;5043341;28;20205;-68
2023/06/15 13:49:32;;;;;;;;;;;25.80;77.90;;;;;;5043548;28;19924;-68
2023/06/15 13:51:59;;;;;;;;;;;25.80;79.40;;;;;;5043111;28;19923;-68
2023/06/15 13:54:27;;;;;;;;;;;26.00;79.20;;;;;;5043143;28;19956;-68
2023/06/15 13:56:54;;;;;;;;;;;26.00;78.30;;;;;;5043552;28;19952;-68
2023/06/15 13:59:21;;;;;;;;;;;26.10;78.80;;;;;;5043266;28;20117;-68
2023/06/15 14:01:48;;;;;;;;;;;26.30;78.90;;;;;;5042579;28;20205;-67
2023/06/15 14:04:14;;;;;;;;;;;26.50;77.90;;;;;;5043448;28;19922;-68
2023/06/15 14:06:41;;;;;;;;;;;26.60;77.60;;;;;;5043177;28;19921;-68
2023/06/15 14:09:07;;;;;;;;;;;27.10;79.70;;;;;;5042346;28;19925;-68
2023/06/15 14:11:36;;;;;;;;;;;27.50;79.30;;;;;;5042584;28;19988;-67
2023/06/15 14:14:03;;;;;;;;;;;28.00;78.10;;;;;;5043075;28;19921;-68
2023/06/15 14:16:29;;;;;;;;;;;28.20;73.90;;;;;;5043243;28;19984;-68
2023/06/15 14:18:57;;;;;;;;;;;28.50;72.30;;;;;;5043244;28;19921;-68
2023/06/15 14:21:24;;;;;;;;;;;28.40;71.40;;;;;;5042753;28;19921;-68
2023/06/15 14:23:51;;;;;;;;;;;28.60;73.80;;;;;;5043324;28;19932;-68
2023/06/15 14:26:17;;;;;;;;;;;28.40;72.50;;;;;;5042855;28;19921;-68
2023/06/15 14:28:45;;;;;;;;;;;28.00;72.40;;;;;;5043176;28;19927;-68
2023/06/15 14:31:12;;;;;;;;;;;27.80;72.70;;;;;;5042568;28;20120;-68
2023/06/15 14:33:38;;;;;;;;;;;27.90;73.40;;;;;;5042808;28;19991;-69
2023/06/15 14:36:06;;;;;;;;;;;28.20;73.00;;;;;;5043069;28;19993;-69
2023/06/15 14:38:32;;;;;;;;;;;28.20;74.00;;;;;;5043079;28;19921;-68
2023/06/15 14:40:59;;;;;;;;;;;28.10;72.90;;;;;;5042293;28;20112;-68
2023/06/15 14:43:26;;;;;;;;;;;27.90;73.40;;;;;;5043046;28;20000;-68